Pagrindinis puslapis
METAR-TAF:

METAR-TAF

Oro uostai :

Fernandina Beach, Florida, Jungtinės Amerikos Valstijos

platuma: 30-36-43N, ilguma: 081-27-40W, Aukštis: 5 m

Dabartinis oras

Ataskaita buvo paskelbta 29 minutes, ne 00:55 UTC
Vėjas 15 kt iš Pietų/Pietryčių su gūsio iki 20 kt
Temperatūra 18°C
Drėgmė 83%
Slėgis 1015 hPa
Matomumas: 16.1 km
Apsiniaukę ne aukštis 7500 ft

METAR: KFHB 250055Z AUTO 16015G20KT 10SM OVC075 18/15 A2997 RMK AO2 T01800151

Laikas: 20:24 (01:24 UTC)


TAF: trūkstamas

Orai ataskaitas ir orų prognozės (METAR, TAF).

turimą stotys yra geltonos ir raudonos taškus žemėlapyje.

Perkelti pele per norėdami pamatyti stoties vardą.

Tada spustelėkite, norėdami matyti oro stebėjimo ir prognozės.

Norėdami pakeisti žemėlapį: spustelėkite ant žalios mygtukų su juodo kryžiaus žemyn,; žalią mygtuką su brūkšneliu, jei norite nutolinti; arba žalių rodyklių gretimoms žemėlapius.


METAR-TAF: